Donnan, Iowa
Current Conditions -  °F | °C
As of 6:35 AM on Monday 24 Nov 2014 (Local Time) from KOLZ Reporting Station
Haze Haze  
Wind Chill: 12°   Ceiling: 700
Heat Index: 27°   Visibility: 5mi
Dew Point: 25°   Wind: 24mph
Humidity: 93%   Direction: 290°WNW
Pressure: 29.29"   Gusts: 32mph
Location:  42.8663°N, 91.8396°W
Report Text: KOLZ 241235Z AUTO 29021G28KT 5SM BR OVC007 M03/M04 A2929 RMK AO2
Loading
Personal Weather Stations






























Interactive Weather Map New forecast layout! Learn more

10-Day Weather Forecast

Advertisements
Track Severe Weather on mobile